createdAt,value
2022-10-13T00:00:47.251Z,10.05
2022-10-13T00:03:14.653Z,10.30
2022-10-13T00:05:43.504Z,11.40
2022-10-13T00:08:12.228Z,11.05
2022-10-13T00:10:40.281Z,11.60
2022-10-13T00:13:08.053Z,11.20
2022-10-13T00:15:41.993Z,13.75
2022-10-13T00:18:09.263Z,14.47
2022-10-13T00:20:40.466Z,14.07
2022-10-13T00:23:07.077Z,13.43
2022-10-13T00:25:33.731Z,13.80
2022-10-13T00:28:00.394Z,13.35
2022-10-13T00:30:27.073Z,12.90
2022-10-13T00:32:53.686Z,14.82
2022-10-13T00:35:20.289Z,13.98
2022-10-13T00:37:46.952Z,13.95
2022-10-13T00:40:13.648Z,14.75
2022-10-13T00:42:41.805Z,14.52
2022-10-13T00:45:24.285Z,15.48
2022-10-13T00:48:02.012Z,14.07
2022-10-13T00:50:41.178Z,14.70
2022-10-13T00:53:10.730Z,14.38
2022-10-13T00:55:40.160Z,14.20
2022-10-13T00:58:10.438Z,14.50
2022-10-13T01:00:37.205Z,15.73
2022-10-13T01:03:04.163Z,14.40
2022-10-13T01:05:31.591Z,14.23
2022-10-13T01:07:59.554Z,14.43
2022-10-13T01:10:42.453Z,15.88
2022-10-13T01:13:32.196Z,16.15
2022-10-13T01:16:09.910Z,15.57
2022-10-13T01:19:23.291Z,15.77
2022-10-13T01:22:24.399Z,15.73
2022-10-13T01:25:12.824Z,15.75
2022-10-13T01:27:51.277Z,15.63
2022-10-13T01:30:22.781Z,16.30
2022-10-13T01:33:26.535Z,17.02
2022-10-13T01:35:53.105Z,15.65
2022-10-13T01:38:28.537Z,16.50
2022-10-13T01:41:27.153Z,17.25
2022-10-13T01:44:23.558Z,15.27
2022-10-13T01:46:52.015Z,15.23
2022-10-13T01:49:23.754Z,16.25
2022-10-13T01:51:52.060Z,16.67
2022-10-13T01:54:18.709Z,16.90
2022-10-13T01:56:55.732Z,15.73
2022-10-13T01:59:24.760Z,18.08
2022-10-13T02:01:54.282Z,17.60
2022-10-13T02:04:37.530Z,17.00
2022-10-13T02:07:19.027Z,17.25
2022-10-13T02:10:05.996Z,17.83
2022-10-13T02:12:42.658Z,16.88
2022-10-13T02:15:12.460Z,17.95
2022-10-13T02:17:40.462Z,16.98
2022-10-13T02:20:08.505Z,17.08
2022-10-13T02:22:42.371Z,18.23
2022-10-13T02:25:09.674Z,18.73
2022-10-13T02:27:36.454Z,18.33
2022-10-13T02:30:04.303Z,18.23
2022-10-13T02:32:31.275Z,17.60
2022-10-13T02:34:58.071Z,18.98
2022-10-13T02:37:27.298Z,18.77
2022-10-13T02:39:53.982Z,18.65
2022-10-13T02:42:20.828Z,17.65
2022-10-13T02:44:47.859Z,18.73
2022-10-13T02:47:14.546Z,17.13
2022-10-13T02:49:41.220Z,18.58
2022-10-13T02:52:07.825Z,18.60
2022-10-13T02:54:34.595Z,17.40
2022-10-13T02:57:01.168Z,15.77
2022-10-13T02:59:28.012Z,16.02
2022-10-13T03:01:54.645Z,17.42
2022-10-13T03:04:21.315Z,17.08
2022-10-13T03:06:48.030Z,17.40
2022-10-13T03:09:14.666Z,16.10
2022-10-13T03:11:41.328Z,16.50
2022-10-13T03:14:07.995Z,16.38
2022-10-13T03:16:34.879Z,15.90
2022-10-13T03:19:01.495Z,17.10
2022-10-13T03:21:28.154Z,16.38
2022-10-13T03:23:54.784Z,19.35
2022-10-13T03:26:21.473Z,17.52
2022-10-13T03:28:52.216Z,16.65
2022-10-13T03:31:19.218Z,16.92
2022-10-13T03:33:46.269Z,16.02
2022-10-13T03:36:16.298Z,17.08
2022-10-13T03:38:43.361Z,16.52
2022-10-13T03:41:16.237Z,16.38
2022-10-13T03:43:43.937Z,16.80
2022-10-13T03:46:16.461Z,16.30
2022-10-13T03:48:43.194Z,17.05
2022-10-13T03:51:13.280Z,16.35
2022-10-13T03:53:40.154Z,15.38
2022-10-13T03:56:07.979Z,16.92
2022-10-13T03:58:34.773Z,16.55
2022-10-13T04:01:06.143Z,16.70
2022-10-13T04:03:33.991Z,17.15
2022-10-13T04:06:05.844Z,16.67
2022-10-13T04:08:34.070Z,17.73
2022-10-13T04:11:13.385Z,17.15
2022-10-13T04:13:40.857Z,16.45
2022-10-13T04:16:19.315Z,18.15
2022-10-13T04:18:50.881Z,16.67
2022-10-13T04:21:17.506Z,16.63
2022-10-13T04:23:44.148Z,16.17
2022-10-13T04:26:22.213Z,16.58
2022-10-13T04:28:50.907Z,17.20
2022-10-13T04:31:18.405Z,18.17
2022-10-13T04:33:45.837Z,17.92
2022-10-13T04:36:14.138Z,17.80
2022-10-13T04:38:41.639Z,17.02
2022-10-13T04:41:09.546Z,17.90
2022-10-13T04:43:36.686Z,17.23
2022-10-13T04:46:05.342Z,19.13
2022-10-13T04:48:32.109Z,17.45
2022-10-13T04:51:03.979Z,17.30
2022-10-13T04:53:31.434Z,17.77
2022-10-13T04:56:02.462Z,17.50
2022-10-13T04:58:29.515Z,18.17
2022-10-13T05:00:56.607Z,19.55
2022-10-13T05:03:24.207Z,18.30
2022-10-13T05:05:51.301Z,18.35
2022-10-13T05:08:18.026Z,18.92
2022-10-13T05:11:00.581Z,17.50
2022-10-13T05:13:28.648Z,17.40
2022-10-13T05:15:55.855Z,18.83
2022-10-13T05:18:23.154Z,17.58
2022-10-13T05:20:50.020Z,18.48
2022-10-13T05:23:17.388Z,18.05
2022-10-13T05:25:44.073Z,17.77
2022-10-13T05:28:10.752Z,19.05
2022-10-13T05:30:37.422Z,17.80
2022-10-13T05:33:04.083Z,18.92
2022-10-13T05:35:30.946Z,17.65
2022-10-13T05:37:57.583Z,19.08
2022-10-13T05:40:24.316Z,19.10
2022-10-13T05:42:51.563Z,19.50
2022-10-13T05:45:19.783Z,18.70
2022-10-13T05:47:46.407Z,19.38
2022-10-13T05:50:13.184Z,18.88
2022-10-13T05:52:40.440Z,19.55
2022-10-13T05:55:10.213Z,18.58
2022-10-13T05:57:41.254Z,18.60
2022-10-13T06:00:15.168Z,18.38
2022-10-13T06:02:50.122Z,19.03
2022-10-13T06:05:19.796Z,21.45
2022-10-13T06:07:48.261Z,20.33
2022-10-13T06:10:15.566Z,17.98
2022-10-13T06:12:42.451Z,19.15
2022-10-13T06:15:09.567Z,20.00
2022-10-13T06:17:38.137Z,19.83
2022-10-13T06:20:06.426Z,22.00
2022-10-13T06:40:30.144Z,18.08
2022-10-13T06:42:57.039Z,17.70
2022-10-13T06:45:25.577Z,17.50
2022-10-13T06:48:06.771Z,18.65
2022-10-13T06:56:15.881Z,17.98
2022-10-13T06:59:06.499Z,17.65
2022-10-13T07:01:41.613Z,17.73
2022-10-13T07:04:09.745Z,16.98
2022-10-13T07:09:28.663Z,17.00
2022-10-13T07:11:55.881Z,16.10
2022-10-13T07:14:26.851Z,16.15
2022-10-13T07:16:53.583Z,16.38
2022-10-13T07:19:38.722Z,16.35
2022-10-13T07:22:05.653Z,16.40
2022-10-13T07:24:32.399Z,15.70
2022-10-13T07:27:16.289Z,16.52
2022-10-13T07:29:43.351Z,17.30
2022-10-13T07:32:10.128Z,15.57
2022-10-13T07:34:37.550Z,15.60
2022-10-13T07:39:44.942Z,15.10
2022-10-13T07:42:15.557Z,14.98
2022-10-13T07:44:58.440Z,15.23
2022-10-13T07:47:27.953Z,14.20
2022-10-13T07:50:12.093Z,16.10
2022-10-13T07:52:49.671Z,15.03
2022-10-13T07:55:16.568Z,13.07
2022-10-13T07:57:43.564Z,12.60
2022-10-13T08:02:54.509Z,13.55
2022-10-13T08:05:28.841Z,13.48
2022-10-13T08:10:56.957Z,13.32
2022-10-13T08:16:04.801Z,11.85
2022-10-13T08:18:32.321Z,12.15
2022-10-13T08:21:33.013Z,12.40
2022-10-13T08:24:02.707Z,12.52
2022-10-13T08:26:34.294Z,13.05
2022-10-13T08:29:24.365Z,11.63
2022-10-13T08:31:54.165Z,11.88
2022-10-13T08:34:54.273Z,11.27
2022-10-13T08:40:30.688Z,11.57
2022-10-13T08:46:01.324Z,11.73
2022-10-13T08:48:44.961Z,11.63
2022-10-13T08:51:18.207Z,10.68
2022-10-13T08:56:33.953Z,11.27
2022-10-13T08:59:17.542Z,12.40
2022-10-13T09:02:09.703Z,11.30
2022-10-13T09:04:48.149Z,11.40
2022-10-13T09:10:01.494Z,12.23
2022-10-13T09:15:11.757Z,12.43
2022-10-13T09:17:40.928Z,12.57
2022-10-13T09:20:50.790Z,12.32
2022-10-13T09:28:33.329Z,11.27
2022-10-13T09:33:58.195Z,11.43
2022-10-13T09:36:24.860Z,11.50
2022-10-13T09:39:14.984Z,11.18
2022-10-13T09:41:43.485Z,10.00
2022-10-13T09:44:16.765Z,11.27
2022-10-13T09:46:55.446Z,11.35
2022-10-13T09:52:39.781Z,10.75
2022-10-13T09:55:32.155Z,11.20
2022-10-13T09:58:18.396Z,11.73
2022-10-13T10:01:01.724Z,12.10
2022-10-13T10:04:01.443Z,12.32
2022-10-13T10:06:28.417Z,12.02
2022-10-13T10:12:06.446Z,11.80
2022-10-13T10:14:36.628Z,12.82
2022-10-13T10:17:38.888Z,12.18
2022-10-13T10:20:33.703Z,13.98
2022-10-13T10:23:27.913Z,13.20
2022-10-13T10:26:01.637Z,11.40
2022-10-13T10:28:48.475Z,12.70
2022-10-13T10:32:04.026Z,12.77
2022-10-13T10:34:54.300Z,10.75
2022-10-13T10:37:39.765Z,12.95
2022-10-13T10:40:21.593Z,13.43
2022-10-13T10:42:59.427Z,13.32
2022-10-13T10:48:25.105Z,12.57
2022-10-13T10:50:53.449Z,11.30
2022-10-13T10:53:44.507Z,13.52
2022-10-13T10:56:39.981Z,14.20
2022-10-13T10:59:40.297Z,13.70
2022-10-13T11:04:56.287Z,14.25
2022-10-13T11:10:18.061Z,13.45
2022-10-13T11:12:47.836Z,13.45
2022-10-13T11:15:41.623Z,14.10
2022-10-13T11:18:45.808Z,14.13
2022-10-13T11:21:23.646Z,13.77
2022-10-13T11:24:07.832Z,13.27
2022-10-13T11:26:52.588Z,13.82
2022-10-13T11:30:01.241Z,12.50
2022-10-13T11:32:38.261Z,11.70
2022-10-13T11:35:26.293Z,13.30
2022-10-13T11:41:14.751Z,14.35
2022-10-13T11:44:09.189Z,13.80
2022-10-13T11:46:57.973Z,14.05
2022-10-13T11:49:41.916Z,11.57
2022-10-13T11:52:25.214Z,13.13
2022-10-13T12:00:24.442Z,12.45
2022-10-13T12:02:54.118Z,11.73
2022-10-13T12:05:29.403Z,12.30
2022-10-13T12:08:01.139Z,11.73
2022-10-13T12:10:46.095Z,11.27
2022-10-13T12:13:26.192Z,11.57
2022-10-13T12:19:00.917Z,12.50
2022-10-13T12:21:47.651Z,11.73
2022-10-13T12:24:14.322Z,11.02
2022-10-13T12:26:50.294Z,11.38
2022-10-13T12:29:18.008Z,9.43
2022-10-13T12:31:50.631Z,9.85
2022-10-13T12:34:18.129Z,9.88
2022-10-13T12:37:09.280Z,11.30
2022-10-13T12:39:38.513Z,10.60
2022-10-13T12:44:59.200Z,10.80
2022-10-13T12:50:25.622Z,10.23
2022-10-13T12:52:55.364Z,9.02
2022-10-13T12:55:32.177Z,14.25
2022-10-13T12:58:12.031Z,11.88
2022-10-13T13:09:22.746Z,10.82
2022-10-13T13:12:04.449Z,10.40
2022-10-13T13:14:37.759Z,12.00
2022-10-13T13:17:15.457Z,11.88
2022-10-13T13:19:54.459Z,12.15
2022-10-13T13:25:33.169Z,10.88
2022-10-13T13:28:12.924Z,11.50
2022-10-13T13:33:36.750Z,12.20
2022-10-13T13:36:07.193Z,10.90
2022-10-13T13:38:41.781Z,11.80
2022-10-13T13:41:13.043Z,9.90
2022-10-13T13:43:59.629Z,10.38
2022-10-13T13:46:50.670Z,9.68
2022-10-13T13:49:17.367Z,9.60
2022-10-13T13:54:24.557Z,10.05
2022-10-13T13:56:57.993Z,8.68
2022-10-13T13:59:29.873Z,9.30
2022-10-13T14:02:13.435Z,9.10
2022-10-13T14:04:59.922Z,8.73
2022-10-13T14:10:16.149Z,9.20
2022-10-13T14:12:43.234Z,10.20
2022-10-13T14:15:25.819Z,9.38
2022-10-13T14:20:50.835Z,9.43
2022-10-13T14:26:08.700Z,9.43
2022-10-13T14:28:46.168Z,9.43
2022-10-13T14:31:36.431Z,9.13
2022-10-13T14:34:07.522Z,9.02
2022-10-13T14:37:01.736Z,9.55
2022-10-13T14:39:39.805Z,9.15
2022-10-13T14:42:08.850Z,9.85
2022-10-13T14:44:35.962Z,8.70
2022-10-13T14:47:02.615Z,9.15
2022-10-13T14:49:40.440Z,8.35
2022-10-13T14:54:50.624Z,8.48
2022-10-13T14:57:30.345Z,8.70
2022-10-13T15:00:01.687Z,8.85
2022-10-13T15:02:28.751Z,8.95
2022-10-13T15:04:55.393Z,8.82
2022-10-13T15:07:32.885Z,10.45
2022-10-13T15:10:17.181Z,9.15
2022-10-13T15:12:43.866Z,9.68
2022-10-13T15:15:11.175Z,7.95
2022-10-13T15:17:57.573Z,8.50
2022-10-13T15:25:53.617Z,8.93
2022-10-13T15:28:21.351Z,9.48
2022-10-13T15:30:57.571Z,9.48
2022-10-13T15:33:24.526Z,9.10
2022-10-13T15:38:44.019Z,9.20
2022-10-13T15:43:52.343Z,9.48
2022-10-13T15:46:31.722Z,9.52
2022-10-13T15:49:16.043Z,8.95
2022-10-13T15:51:46.933Z,10.43
2022-10-13T15:57:16.103Z,9.48
2022-10-13T15:59:42.993Z,9.80
2022-10-13T16:02:23.545Z,9.45
2022-10-13T16:05:10.865Z,10.68
2022-10-13T16:07:55.486Z,10.40
2022-10-13T16:10:23.800Z,11.73
2022-10-13T16:13:10.932Z,10.85
2022-10-13T16:15:48.640Z,11.20
2022-10-13T16:18:15.483Z,9.88
2022-10-13T16:21:01.344Z,12.57
2022-10-13T16:23:40.458Z,11.30
2022-10-13T16:26:08.259Z,12.00
2022-10-13T16:29:02.572Z,12.63
2022-10-13T16:31:29.331Z,11.73
2022-10-13T16:39:17.762Z,12.05
2022-10-13T16:41:56.501Z,12.13
2022-10-13T16:44:24.344Z,12.50
2022-10-13T16:46:57.996Z,12.35
2022-10-13T16:49:36.684Z,11.18
2022-10-13T16:52:03.704Z,11.63
2022-10-13T16:54:49.343Z,12.55
2022-10-13T16:57:49.739Z,11.10
2022-10-13T17:00:16.545Z,11.60
2022-10-13T17:02:43.245Z,11.10
2022-10-13T17:05:34.449Z,11.50
2022-10-13T17:16:07.498Z,11.77
2022-10-13T17:26:39.374Z,12.07
2022-10-13T17:31:49.357Z,12.23
2022-10-13T17:37:09.792Z,12.63
2022-10-13T17:39:36.503Z,13.20
2022-10-13T17:42:20.121Z,13.07
2022-10-13T17:44:52.871Z,13.25
2022-10-13T17:47:27.564Z,12.93
2022-10-13T17:55:37.403Z,14.20
2022-10-13T17:58:17.259Z,14.40
2022-10-13T18:01:07.942Z,14.95
2022-10-13T18:03:33.546Z,13.75
2022-10-13T18:06:00.317Z,15.18
2022-10-13T18:15:37.212Z,15.07
2022-10-13T18:18:04.744Z,15.60
2022-10-13T18:20:32.179Z,16.27
2022-10-13T18:22:59.644Z,15.95
2022-10-13T18:25:26.277Z,15.65
2022-10-13T18:27:52.888Z,16.27
2022-10-13T18:30:22.317Z,15.85
2022-10-13T18:32:49.290Z,15.95
2022-10-13T18:35:16.068Z,14.63
2022-10-13T18:37:42.710Z,16.15
2022-10-13T18:40:10.080Z,15.43
2022-10-13T18:42:36.735Z,16.13
2022-10-13T18:45:03.641Z,16.92
2022-10-13T18:47:30.284Z,15.77
2022-10-13T18:49:56.910Z,16.27
2022-10-13T18:52:23.526Z,16.05
2022-10-13T18:54:50.850Z,17.23
2022-10-13T18:57:17.453Z,16.48
2022-10-13T18:59:44.080Z,15.68
2022-10-13T19:02:14.112Z,17.10
2022-10-13T19:04:40.932Z,17.63
2022-10-13T19:07:07.652Z,16.70
2022-10-13T19:09:34.438Z,17.15
2022-10-13T19:12:01.061Z,16.20
2022-10-13T19:14:27.824Z,16.35
2022-10-13T19:16:57.134Z,16.85
2022-10-13T19:19:27.567Z,16.63
2022-10-13T19:21:54.279Z,17.60
2022-10-13T19:24:20.869Z,16.35
2022-10-13T19:26:47.480Z,17.90
2022-10-13T19:29:15.674Z,18.45
2022-10-13T19:31:42.789Z,18.17
2022-10-13T19:34:10.939Z,17.00
2022-10-13T19:36:43.438Z,17.70
2022-10-13T19:39:19.912Z,18.40
2022-10-13T19:41:47.891Z,16.92
2022-10-13T19:44:15.978Z,17.30
2022-10-13T19:46:44.202Z,18.02
2022-10-13T19:49:13.334Z,17.88
2022-10-13T19:51:41.851Z,16.45
2022-10-13T19:54:09.124Z,18.15
2022-10-13T19:56:35.774Z,17.33
2022-10-13T19:59:04.460Z,16.88
2022-10-13T20:01:32.879Z,16.77
2022-10-13T20:03:59.702Z,17.42
2022-10-13T20:06:26.404Z,18.30
2022-10-13T20:08:53.049Z,17.13
2022-10-13T20:11:23.823Z,18.10
2022-10-13T20:13:52.537Z,16.40
2022-10-13T20:16:22.574Z,18.13
2022-10-13T20:18:54.830Z,18.48
2022-10-13T20:21:21.704Z,18.52
2022-10-13T20:23:49.094Z,17.80
2022-10-13T20:26:15.711Z,17.38
2022-10-13T20:28:43.929Z,17.60
2022-10-13T20:31:15.346Z,18.30
2022-10-13T20:33:42.427Z,18.15
2022-10-13T20:36:12.655Z,17.67
2022-10-13T20:38:39.959Z,18.85
2022-10-13T20:41:07.758Z,17.77
2022-10-13T20:43:34.810Z,18.30
2022-10-13T20:46:06.591Z,18.55
2022-10-13T20:48:57.884Z,18.30
2022-10-13T20:51:23.705Z,19.15
2022-10-13T20:53:50.992Z,17.42
2022-10-13T20:56:20.648Z,16.77
2022-10-13T20:58:47.493Z,17.52
2022-10-13T21:01:14.595Z,17.30
2022-10-13T21:03:41.695Z,17.83
2022-10-13T21:06:11.870Z,18.20
2022-10-13T21:08:39.291Z,17.88
2022-10-13T21:11:11.133Z,16.75
2022-10-13T21:13:39.723Z,16.25
2022-10-13T21:16:15.141Z,16.95
2022-10-13T21:18:48.139Z,18.88
2022-10-13T21:21:19.303Z,18.45
2022-10-13T21:23:50.311Z,18.02
2022-10-13T21:26:21.367Z,17.00
2022-10-13T21:28:49.965Z,19.23
2022-10-13T21:31:18.363Z,19.63
2022-10-13T21:33:45.436Z,17.50
2022-10-13T21:36:14.903Z,16.90
2022-10-13T21:38:42.631Z,16.70
2022-10-13T21:41:11.875Z,16.77
2022-10-13T21:43:38.631Z,19.52
2022-10-13T21:46:16.165Z,18.70
2022-10-13T21:48:44.616Z,17.88
2022-10-13T21:51:17.611Z,17.20
2022-10-13T21:53:49.072Z,19.23
2022-10-13T21:56:16.240Z,18.58
2022-10-13T21:58:42.875Z,19.35
2022-10-13T22:01:09.738Z,19.27
2022-10-13T22:03:37.165Z,19.13
2022-10-13T22:06:08.234Z,19.05
2022-10-13T22:08:39.210Z,19.75
2022-10-13T22:11:07.698Z,20.55
2022-10-13T22:13:37.385Z,19.92
2022-10-13T22:16:10.572Z,20.15
2022-10-13T22:18:37.353Z,20.58
2022-10-13T22:21:07.056Z,18.73
2022-10-13T22:23:34.471Z,19.00
2022-10-13T22:26:01.147Z,19.08
2022-10-13T22:28:27.828Z,18.25
2022-10-13T22:30:54.597Z,19.05
2022-10-13T22:33:21.406Z,18.73
2022-10-13T22:35:48.142Z,18.27
2022-10-13T22:38:14.805Z,19.25
2022-10-13T22:40:41.947Z,19.50
2022-10-13T22:43:09.033Z,20.30
2022-10-13T22:45:36.038Z,20.65
2022-10-13T22:48:02.702Z,21.05
2022-10-13T22:50:29.672Z,19.48
2022-10-13T22:52:56.599Z,19.83
2022-10-13T22:55:23.287Z,19.92
2022-10-13T22:57:49.900Z,20.98
2022-10-13T23:00:16.685Z,21.88
2022-10-13T23:02:43.309Z,22.15
2022-10-13T23:05:10.061Z,22.65
2022-10-13T23:07:36.685Z,21.88
2022-10-13T23:10:04.136Z,21.63
2022-10-13T23:12:30.836Z,22.08
2022-10-13T23:14:57.461Z,22.25
2022-10-13T23:17:24.405Z,22.92
2022-10-13T23:19:51.128Z,23.98
2022-10-13T23:22:17.726Z,23.30
2022-10-13T23:24:44.417Z,22.90
2022-10-13T23:27:11.032Z,23.85
2022-10-13T23:29:37.677Z,22.38
2022-10-13T23:32:09.557Z,23.13
2022-10-13T23:34:36.519Z,24.33
2022-10-13T23:37:03.363Z,26.92
2022-10-13T23:39:30.050Z,25.50
2022-10-13T23:41:56.719Z,27.10
2022-10-13T23:44:23.554Z,28.45
2022-10-13T23:46:50.197Z,25.50
2022-10-13T23:49:16.819Z,26.25
2022-10-13T23:51:44.350Z,26.20
2022-10-13T23:54:11.345Z,26.13
2022-10-13T23:56:38.595Z,27.02
2022-10-13T23:59:05.311Z,28.58
